SVA1042 OEJN-OERK
Flight info
| Callsign | SVA1042 |
|---|---|
| Flight time | 1h 7m |
| Altitude | 39000 |
| Route | EGREP T532 ORDEM |
| Aircraft | B77W/H-SDE1E2E3FGHIJ2J3J4J5M1RWXY/LB1D1 |
Departure
| Time | 2026-05-04 15:54 |
|---|---|
| Airport | King Abdulaziz International Airport (OEJN) |
Arrival
| Time | 2026-05-04 17:01 |
|---|---|
| Airport | King Khalid International Airport (OERK) |
| Time | Latitude | Longitude | Altitude | Speed | Heading |
|---|---|---|---|---|---|
| 2026-05-04 15:23 | 21.66693 | 39.17241 | 39 ft | 0 kts | 250° |
| 2026-05-04 15:43 | 21.66694 | 39.17241 | 40 ft | 0 kts | 250° |
| 2026-05-04 15:43 | 21.66701 | 39.17263 | 38 ft | 4 kts | 250° |
| 2026-05-04 15:44 | 21.66710 | 39.17291 | 37 ft | 4 kts | 250° |
| 2026-05-04 15:44 | 21.66718 | 39.17314 | 37 ft | 4 kts | 231° |
| 2026-05-04 15:44 | 21.66738 | 39.17325 | 35 ft | 4 kts | 171° |
| 2026-05-04 15:44 | 21.66763 | 39.17318 | 38 ft | 3 kts | 160° |
| 2026-05-04 15:45 | 21.66770 | 39.17315 | 38 ft | 0 kts | 160° |
| 2026-05-04 15:49 | 21.66749 | 39.17323 | 36 ft | 4 kts | 160° |
| 2026-05-04 15:49 | 21.66717 | 39.17336 | 37 ft | 5 kts | 160° |
| 2026-05-04 15:50 | 21.66671 | 39.17354 | 40 ft | 9 kts | 160° |
| 2026-05-04 15:50 | 21.66601 | 39.17382 | 40 ft | 11 kts | 159° |
| 2026-05-04 15:50 | 21.66530 | 39.17421 | 41 ft | 11 kts | 137° |
| 2026-05-04 15:50 | 21.66495 | 39.17495 | 41 ft | 11 kts | 95° |
| 2026-05-04 15:51 | 21.66511 | 39.17578 | 41 ft | 12 kts | 73° |
| 2026-05-04 15:51 | 21.66536 | 39.17660 | 41 ft | 12 kts | 70° |
| 2026-05-04 15:51 | 21.66564 | 39.17741 | 41 ft | 12 kts | 69° |
| 2026-05-04 15:51 | 21.66593 | 39.17824 | 41 ft | 12 kts | 69° |
| 2026-05-04 15:52 | 21.66621 | 39.17904 | 41 ft | 11 kts | 69° |
| 2026-05-04 15:52 | 21.66649 | 39.17981 | 42 ft | 11 kts | 69° |
| 2026-05-04 15:52 | 21.66688 | 39.18022 | 42 ft | 8 kts | 2° |
| 2026-05-04 15:52 | 21.66733 | 39.18011 | 41 ft | 0 kts | 341° |
| 2026-05-04 15:53 | 21.66748 | 39.18006 | 41 ft | 13 kts | 341° |
| 2026-05-04 15:53 | 21.67068 | 39.17881 | 40 ft | 92 kts | 340° |
| 2026-05-04 15:53 | 21.67913 | 39.17549 | 39 ft | 163 kts | 340° |
| 2026-05-04 15:54 | 21.69066 | 39.17099 | 469 ft | 181 kts | 339° |
| 2026-05-04 15:54 | 21.70296 | 39.16626 | 1153 ft | 193 kts | 340° |
| 2026-05-04 15:54 | 21.71605 | 39.16107 | 1809 ft | 207 kts | 339° |
| 2026-05-04 15:54 | 21.72971 | 39.15550 | 2554 ft | 212 kts | 338° |
| 2026-05-04 15:55 | 21.74352 | 39.14970 | 3271 ft | 219 kts | 338° |
| 2026-05-04 15:55 | 21.75931 | 39.14604 | 3498 ft | 250 kts | 1° |
| 2026-05-04 15:55 | 21.77647 | 39.15112 | 4184 ft | 262 kts | 26° |
| 2026-05-04 15:55 | 21.79121 | 39.16323 | 4922 ft | 273 kts | 37° |
| 2026-05-04 15:56 | 21.80553 | 39.17705 | 5617 ft | 279 kts | 38° |
| 2026-05-04 15:56 | 21.82011 | 39.19130 | 6137 ft | 282 kts | 38° |
| 2026-05-04 15:56 | 21.83475 | 39.20570 | 6920 ft | 288 kts | 40° |
| 2026-05-04 15:56 | 21.84949 | 39.22029 | 7714 ft | 294 kts | 40° |
| 2026-05-04 15:57 | 21.86463 | 39.23532 | 8613 ft | 297 kts | 41° |
| 2026-05-04 15:57 | 21.88004 | 39.25066 | 9343 ft | 306 kts | 41° |
| 2026-05-04 15:57 | 21.89569 | 39.26620 | 10189 ft | 308 kts | 42° |
| 2026-05-04 15:57 | 21.91184 | 39.28227 | 10691 ft | 328 kts | 41° |
| 2026-05-04 15:58 | 21.92936 | 39.29967 | 10889 ft | 358 kts | 41° |
| 2026-05-04 15:58 | 21.94836 | 39.31856 | 11205 ft | 382 kts | 42° |
| 2026-05-04 15:58 | 21.96832 | 39.33841 | 11814 ft | 397 kts | 42° |
| 2026-05-04 15:58 | 21.98879 | 39.35879 | 12741 ft | 402 kts | 43° |
| 2026-05-04 15:59 | 22.00950 | 39.37942 | 13655 ft | 410 kts | 43° |
| 2026-05-04 15:59 | 22.03061 | 39.40044 | 14447 ft | 417 kts | 43° |
| 2026-05-04 15:59 | 22.05195 | 39.42171 | 15423 ft | 419 kts | 43° |
| 2026-05-04 15:59 | 22.07349 | 39.44318 | 16277 ft | 425 kts | 42° |
| 2026-05-04 16:00 | 22.09506 | 39.46468 | 17179 ft | 429 kts | 42° |
| 2026-05-04 16:00 | 22.11714 | 39.48668 | 18090 ft | 434 kts | 41° |
| 2026-05-04 16:00 | 22.13948 | 39.50897 | 18868 ft | 439 kts | 41° |
| 2026-05-04 16:00 | 22.16204 | 39.53148 | 19615 ft | 445 kts | 41° |
| 2026-05-04 16:01 | 22.18487 | 39.55427 | 20350 ft | 450 kts | 41° |
| 2026-05-04 16:01 | 22.20795 | 39.57734 | 21094 ft | 455 kts | 41° |
| 2026-05-04 16:01 | 22.23133 | 39.60071 | 21828 ft | 461 kts | 42° |
| 2026-05-04 16:01 | 22.25495 | 39.62434 | 22551 ft | 466 kts | 42° |
| 2026-05-04 16:02 | 22.27074 | 39.64014 | 23019 ft | 469 kts | 41° |
| 2026-05-04 16:02 | 22.30303 | 39.67246 | 23831 ft | 477 kts | 41° |
| 2026-05-04 16:02 | 22.35219 | 39.72172 | 24758 ft | 491 kts | 41° |
| 2026-05-04 16:03 | 22.37743 | 39.74704 | 25245 ft | 497 kts | 41° |
| 2026-05-04 16:03 | 22.40286 | 39.77255 | 25804 ft | 502 kts | 41° |
| 2026-05-04 16:03 | 22.42856 | 39.79836 | 26310 ft | 506 kts | 41° |
| 2026-05-04 16:03 | 22.45446 | 39.82438 | 26816 ft | 511 kts | 41° |
| 2026-05-04 16:04 | 22.48085 | 39.85066 | 27266 ft | 517 kts | 40° |
| 2026-05-04 16:04 | 22.53542 | 39.90282 | 28067 ft | 529 kts | 38° |
| 2026-05-04 16:04 | 22.56334 | 39.92914 | 28520 ft | 533 kts | 38° |
| 2026-05-04 16:05 | 22.59136 | 39.95562 | 28973 ft | 537 kts | 38° |
| 2026-05-04 16:05 | 22.61003 | 39.97333 | 29067 ft | 538 kts | 39° |
| 2026-05-04 16:05 | 22.67406 | 40.03865 | 29556 ft | 539 kts | 39° |
| 2026-05-04 16:06 | 22.70230 | 40.06496 | 29825 ft | 546 kts | 37° |
| 2026-05-04 16:06 | 22.78129 | 40.13601 | 28998 ft | 557 kts | 33° |
| 2026-05-04 16:07 | 22.81993 | 40.16836 | 31921 ft | 507 kts | 37° |
| 2026-05-04 16:07 | 22.89705 | 40.24642 | 33432 ft | 521 kts | 40° |
| 2026-05-04 16:08 | 22.92385 | 40.27353 | 33536 ft | 531 kts | 39° |
| 2026-05-04 16:08 | 23.00815 | 40.35549 | 34056 ft | 551 kts | 38° |
| 2026-05-04 16:09 | 23.06543 | 40.41049 | 34788 ft | 549 kts | 38° |
| 2026-05-04 16:09 | 23.12246 | 40.46549 | 35594 ft | 548 kts | 38° |
| 2026-05-04 16:10 | 23.16965 | 40.51113 | 36409 ft | 542 kts | 38° |
| 2026-05-04 16:11 | 23.26006 | 40.60488 | 37663 ft | 544 kts | 50° |
| 2026-05-04 16:11 | 23.27502 | 40.62743 | 37956 ft | 544 kts | 55° |
| 2026-05-04 16:12 | 23.32273 | 40.73910 | 38838 ft | 545 kts | 70° |
| 2026-05-04 16:12 | 23.36160 | 40.85599 | 38965 ft | 547 kts | 70° |
| 2026-05-04 16:13 | 23.41417 | 41.00852 | 38948 ft | 540 kts | 70° |
| 2026-05-04 16:14 | 23.46704 | 41.16144 | 38955 ft | 540 kts | 70° |
| 2026-05-04 16:16 | 23.53300 | 41.35340 | 38962 ft | 544 kts | 70° |
| 2026-05-04 16:17 | 23.59913 | 41.54677 | 38944 ft | 546 kts | 70° |
| 2026-05-04 16:18 | 23.65198 | 41.70197 | 38931 ft | 545 kts | 70° |
| 2026-05-04 16:19 | 23.71490 | 41.89645 | 38942 ft | 543 kts | 72° |
| 2026-05-04 16:20 | 23.77758 | 42.08897 | 38944 ft | 541 kts | 70° |
| 2026-05-04 16:22 | 23.84362 | 42.28085 | 38941 ft | 540 kts | 70° |
| 2026-05-04 16:23 | 23.92185 | 42.51192 | 38951 ft | 541 kts | 70° |
| 2026-05-04 16:25 | 24.00008 | 42.74409 | 38951 ft | 543 kts | 70° |
| 2026-05-04 16:26 | 24.09033 | 43.01494 | 38953 ft | 546 kts | 71° |
| 2026-05-04 16:28 | 24.15454 | 43.21054 | 38951 ft | 546 kts | 71° |
| 2026-05-04 16:29 | 24.24399 | 43.48427 | 38941 ft | 546 kts | 71° |
| 2026-05-04 16:31 | 24.30773 | 43.68052 | 38946 ft | 546 kts | 71° |
| 2026-05-04 16:32 | 24.38024 | 43.91688 | 38940 ft | 545 kts | 77° |
| 2026-05-04 16:33 | 24.41613 | 44.07723 | 38912 ft | 545 kts | 77° |
| 2026-05-04 16:34 | 24.44414 | 44.19779 | 38913 ft | 546 kts | 77° |
| 2026-05-04 16:35 | 24.50035 | 44.44007 | 38917 ft | 546 kts | 77° |
| 2026-05-04 16:36 | 24.52616 | 44.56173 | 38931 ft | 544 kts | 81° |
| 2026-05-04 16:37 | 24.54661 | 44.68432 | 38792 ft | 545 kts | 82° |
| 2026-05-04 16:37 | 24.56023 | 44.76588 | 37782 ft | 540 kts | 81° |
| 2026-05-04 16:38 | 24.57396 | 44.84662 | 36648 ft | 535 kts | 81° |
| 2026-05-04 16:39 | 24.59415 | 44.96516 | 35349 ft | 522 kts | 81° |
| 2026-05-04 16:39 | 24.60708 | 45.04163 | 34451 ft | 516 kts | 81° |
| 2026-05-04 16:40 | 24.62006 | 45.11871 | 33574 ft | 508 kts | 81° |
| 2026-05-04 16:40 | 24.63278 | 45.19445 | 32751 ft | 498 kts | 81° |
| 2026-05-04 16:41 | 24.64523 | 45.26884 | 31872 ft | 492 kts | 81° |
| 2026-05-04 16:41 | 24.66355 | 45.37875 | 30614 ft | 482 kts | 81° |
| 2026-05-04 16:42 | 24.68132 | 45.48614 | 29341 ft | 472 kts | 81° |
| 2026-05-04 16:43 | 24.69268 | 45.55655 | 28557 ft | 463 kts | 81° |
| 2026-05-04 16:43 | 24.70381 | 45.62594 | 27745 ft | 456 kts | 81° |
| 2026-05-04 16:43 | 24.70928 | 45.66008 | 27342 ft | 452 kts | 81° |
| 2026-05-04 16:44 | 24.73066 | 45.79372 | 25878 ft | 438 kts | 80° |
| 2026-05-04 16:45 | 24.74113 | 45.85938 | 25119 ft | 433 kts | 80° |
| 2026-05-04 16:46 | 24.75647 | 45.95602 | 24131 ft | 421 kts | 80° |
| 2026-05-04 16:46 | 24.76633 | 46.01837 | 23266 ft | 421 kts | 79° |
| 2026-05-04 16:47 | 24.77655 | 46.08309 | 21730 ft | 434 kts | 80° |
| 2026-05-04 16:47 | 24.78666 | 46.14811 | 20594 ft | 433 kts | 80° |
| 2026-05-04 16:48 | 24.80163 | 46.24531 | 19235 ft | 423 kts | 80° |
| 2026-05-04 16:48 | 24.80652 | 46.27713 | 18853 ft | 419 kts | 80° |
| 2026-05-04 16:49 | 24.81617 | 46.33986 | 18016 ft | 412 kts | 80° |
| 2026-05-04 16:49 | 24.82564 | 46.40167 | 17035 ft | 408 kts | 80° |
| 2026-05-04 16:50 | 24.83498 | 46.46278 | 16158 ft | 401 kts | 80° |
| 2026-05-04 16:50 | 24.84071 | 46.52307 | 15205 ft | 394 kts | 94° |
| 2026-05-04 16:51 | 24.83109 | 46.57151 | 14521 ft | 387 kts | 111° |
| 2026-05-04 16:51 | 24.81894 | 46.60926 | 13227 ft | 401 kts | 111° |
| 2026-05-04 16:51 | 24.80109 | 46.66495 | 12995 ft | 375 kts | 111° |
| 2026-05-04 16:52 | 24.78328 | 46.71725 | 12688 ft | 355 kts | 112° |
| 2026-05-04 16:52 | 24.77469 | 46.74233 | 12589 ft | 345 kts | 112° |
| 2026-05-04 16:53 | 24.74962 | 46.78590 | 11197 ft | 337 kts | 138° |
| 2026-05-04 16:53 | 24.69026 | 46.81986 | 9399 ft | 322 kts | 145° |
| 2026-05-04 16:54 | 24.67595 | 46.83848 | 8976 ft | 322 kts | 115° |
| 2026-05-04 16:55 | 24.71602 | 46.90087 | 8078 ft | 289 kts | 345° |
| 2026-05-04 16:55 | 24.74268 | 46.87326 | 7117 ft | 281 kts | 286° |
| 2026-05-04 16:56 | 24.74699 | 46.82897 | 5902 ft | 295 kts | 270° |
| 2026-05-04 16:56 | 24.77736 | 46.78745 | 5111 ft | 221 kts | 340° |
| 2026-05-04 16:57 | 24.78670 | 46.78397 | 4960 ft | 210 kts | 339° |
| 2026-05-04 16:57 | 24.81188 | 46.77255 | 4523 ft | 184 kts | 334° |
| 2026-05-04 16:58 | 24.84712 | 46.75281 | 4087 ft | 166 kts | 329° |
| 2026-05-04 16:58 | 24.85722 | 46.74620 | 3841 ft | 175 kts | 328° |
| 2026-05-04 16:59 | 24.87518 | 46.73485 | 3432 ft | 179 kts | 332° |
| 2026-05-04 17:00 | 24.91555 | 46.70963 | 2664 ft | 161 kts | 330° |
| 2026-05-04 17:00 | 24.94478 | 46.69138 | 2040 ft | 120 kts | 330° |
| 2026-05-04 17:01 | 24.95324 | 46.68674 | 2040 ft | 40 kts | 356° |
| 2026-05-04 17:01 | 24.95506 | 46.68769 | 2044 ft | 9 kts | 54° |
| 2026-05-04 17:02 | 24.95509 | 46.68773 | 2043 ft | 0 kts | 55° |